Terminal Aerodrome Forecast
Issued by NWS

Home | Current Version | Previous Version | Text Only | Print | Product List | Glossary On
Versions: 1 2 3 4 5 6 7 8 9 10 11 12 13 14 15 16 17 18 19 20
000
FTUS44 KLZK 280520
TAFHRO
TAF
KHRO 280520Z 2806/2906 17005KT P6SM SCT035 OVC200
      TEMPO 2810/2814 BKN020
     FM281500 17008KT P6SM BKN040
     FM282100 19010KT P6SM VCSH SCT050
     FM290100 16005KT P6SM SCT250=

USA.gov is the U.S. government's official web portal to all federal, state and local government web resources and services.